sensor_id;sensor_type;location;lat;lon;timestamp;temperature;humidity
6333;DHT22;3199;49.102;8.856;2023-07-29T00:00:46;17.70;99.90
6333;DHT22;3199;49.102;8.856;2023-07-29T00:03:11;17.70;99.90
6333;DHT22;3199;49.102;8.856;2023-07-29T00:05:37;17.70;99.90
6333;DHT22;3199;49.102;8.856;2023-07-29T00:08:03;17.70;99.90
6333;DHT22;3199;49.102;8.856;2023-07-29T00:10:31;17.70;99.90
6333;DHT22;3199;49.102;8.856;2023-07-29T00:12:57;17.70;99.90
6333;DHT22;3199;49.102;8.856;2023-07-29T00:15:22;17.70;99.90
6333;DHT22;3199;49.102;8.856;2023-07-29T00:17:48;17.80;99.90
6333;DHT22;3199;49.102;8.856;2023-07-29T00:20:14;17.70;99.90
6333;DHT22;3199;49.102;8.856;2023-07-29T00:22:39;17.70;99.90
6333;DHT22;3199;49.102;8.856;2023-07-29T00:25:05;17.80;99.90
6333;DHT22;3199;49.102;8.856;2023-07-29T00:27:31;17.80;99.90
6333;DHT22;3199;49.102;8.856;2023-07-29T00:29:56;17.80;99.90
6333;DHT22;3199;49.102;8.856;2023-07-29T00:32:22;17.80;99.90
6333;DHT22;3199;49.102;8.856;2023-07-29T00:34:47;17.80;99.90
6333;DHT22;3199;49.102;8.856;2023-07-29T00:37:13;17.80;99.90
6333;DHT22;3199;49.102;8.856;2023-07-29T00:39:39;17.80;99.90
6333;DHT22;3199;49.102;8.856;2023-07-29T00:42:05;17.80;99.90
6333;DHT22;3199;49.102;8.856;2023-07-29T00:44:30;17.80;99.90
6333;DHT22;3199;49.102;8.856;2023-07-29T00:47:00;17.90;99.90
6333;DHT22;3199;49.102;8.856;2023-07-29T00:49:27;17.90;99.90
6333;DHT22;3199;49.102;8.856;2023-07-29T00:51:53;17.90;99.90
6333;DHT22;3199;49.102;8.856;2023-07-29T00:54:19;17.90;99.90
6333;DHT22;3199;49.102;8.856;2023-07-29T00:56:45;17.90;99.90
6333;DHT22;3199;49.102;8.856;2023-07-29T00:59:10;17.90;99.90
6333;DHT22;3199;49.102;8.856;2023-07-29T01:01:36;17.90;99.90
6333;DHT22;3199;49.102;8.856;2023-07-29T01:04:02;17.90;99.90
6333;DHT22;3199;49.102;8.856;2023-07-29T01:06:36;17.90;99.90
6333;DHT22;3199;49.102;8.856;2023-07-29T01:09:17;17.90;99.90
6333;DHT22;3199;49.102;8.856;2023-07-29T01:11:58;17.90;99.90
6333;DHT22;3199;49.102;8.856;2023-07-29T01:14:29;17.90;99.90
6333;DHT22;3199;49.102;8.856;2023-07-29T01:17:04;17.90;99.90
6333;DHT22;3199;49.102;8.856;2023-07-29T01:22:24;17.90;99.90
6333;DHT22;3199;49.102;8.856;2023-07-29T01:24:49;17.90;99.90
6333;DHT22;3199;49.102;8.856;2023-07-29T01:27:15;17.90;99.90
6333;DHT22;3199;49.102;8.856;2023-07-29T01:29:40;17.90;99.90
6333;DHT22;3199;49.102;8.856;2023-07-29T01:32:14;17.80;99.90
6333;DHT22;3199;49.102;8.856;2023-07-29T01:34:47;17.90;99.90
6333;DHT22;3199;49.102;8.856;2023-07-29T01:37:19;17.90;99.90
6333;DHT22;3199;49.102;8.856;2023-07-29T01:39:49;17.90;99.90
6333;DHT22;3199;49.102;8.856;2023-07-29T01:42:16;17.90;99.90
6333;DHT22;3199;49.102;8.856;2023-07-29T01:44:42;17.90;99.90
6333;DHT22;3199;49.102;8.856;2023-07-29T01:47:08;17.90;99.90
6333;DHT22;3199;49.102;8.856;2023-07-29T01:49:33;17.90;99.90
6333;DHT22;3199;49.102;8.856;2023-07-29T01:51:59;17.90;99.90
6333;DHT22;3199;49.102;8.856;2023-07-29T01:54:25;17.90;99.90
6333;DHT22;3199;49.102;8.856;2023-07-29T01:56:50;17.90;99.90
6333;DHT22;3199;49.102;8.856;2023-07-29T01:59:16;17.80;99.90
6333;DHT22;3199;49.102;8.856;2023-07-29T02:01:42;17.80;99.90
6333;DHT22;3199;49.102;8.856;2023-07-29T02:04:08;17.80;99.90
6333;DHT22;3199;49.102;8.856;2023-07-29T02:06:33;17.70;99.90
6333;DHT22;3199;49.102;8.856;2023-07-29T02:08:59;17.80;99.90
6333;DHT22;3199;49.102;8.856;2023-07-29T02:11:24;17.70;99.90
6333;DHT22;3199;49.102;8.856;2023-07-29T02:13:56;17.70;99.90
6333;DHT22;3199;49.102;8.856;2023-07-29T02:16:22;17.70;99.90
6333;DHT22;3199;49.102;8.856;2023-07-29T02:18:50;17.70;99.90
6333;DHT22;3199;49.102;8.856;2023-07-29T02:21:16;17.70;99.90
6333;DHT22;3199;49.102;8.856;2023-07-29T02:23:41;17.70;99.90
6333;DHT22;3199;49.102;8.856;2023-07-29T02:26:07;17.60;99.90
6333;DHT22;3199;49.102;8.856;2023-07-29T02:28:33;17.60;99.90
6333;DHT22;3199;49.102;8.856;2023-07-29T02:31:23;17.60;99.90
6333;DHT22;3199;49.102;8.856;2023-07-29T02:33:49;17.60;99.90
6333;DHT22;3199;49.102;8.856;2023-07-29T02:36:15;17.60;99.90
6333;DHT22;3199;49.102;8.856;2023-07-29T02:38:41;17.60;99.90
6333;DHT22;3199;49.102;8.856;2023-07-29T02:41:08;17.60;99.90
6333;DHT22;3199;49.102;8.856;2023-07-29T02:43:37;17.50;99.90
6333;DHT22;3199;49.102;8.856;2023-07-29T02:46:03;17.50;99.90
6333;DHT22;3199;49.102;8.856;2023-07-29T02:48:29;17.50;99.90
6333;DHT22;3199;49.102;8.856;2023-07-29T02:50:56;17.50;99.90
6333;DHT22;3199;49.102;8.856;2023-07-29T02:53:25;17.50;99.90
6333;DHT22;3199;49.102;8.856;2023-07-29T02:55:50;17.50;99.90
6333;DHT22;3199;49.102;8.856;2023-07-29T02:58:16;17.50;99.90
6333;DHT22;3199;49.102;8.856;2023-07-29T03:00:42;17.50;99.90
6333;DHT22;3199;49.102;8.856;2023-07-29T03:03:08;17.50;99.90
6333;DHT22;3199;49.102;8.856;2023-07-29T03:05:34;17.50;99.90
6333;DHT22;3199;49.102;8.856;2023-07-29T03:08:00;17.50;99.90
6333;DHT22;3199;49.102;8.856;2023-07-29T03:10:25;17.50;99.90
6333;DHT22;3199;49.102;8.856;2023-07-29T03:12:52;17.50;99.90
6333;DHT22;3199;49.102;8.856;2023-07-29T03:15:18;17.60;99.90
6333;DHT22;3199;49.102;8.856;2023-07-29T03:17:44;17.60;99.90
6333;DHT22;3199;49.102;8.856;2023-07-29T03:20:10;17.50;99.90
6333;DHT22;3199;49.102;8.856;2023-07-29T03:22:35;17.50;99.90
6333;DHT22;3199;49.102;8.856;2023-07-29T03:25:01;17.50;99.90
6333;DHT22;3199;49.102;8.856;2023-07-29T03:27:26;17.50;99.90
6333;DHT22;3199;49.102;8.856;2023-07-29T03:29:52;17.50;99.90
6333;DHT22;3199;49.102;8.856;2023-07-29T03:32:17;17.50;99.90
6333;DHT22;3199;49.102;8.856;2023-07-29T03:34:43;17.50;99.90
6333;DHT22;3199;49.102;8.856;2023-07-29T03:37:08;17.50;99.90
6333;DHT22;3199;49.102;8.856;2023-07-29T03:39:34;17.50;99.90
6333;DHT22;3199;49.102;8.856;2023-07-29T03:41:59;17.50;99.90
6333;DHT22;3199;49.102;8.856;2023-07-29T03:44:25;17.50;99.90
6333;DHT22;3199;49.102;8.856;2023-07-29T03:46:51;17.50;99.90
6333;DHT22;3199;49.102;8.856;2023-07-29T03:49:16;17.50;99.90
6333;DHT22;3199;49.102;8.856;2023-07-29T03:51:42;17.50;99.90
6333;DHT22;3199;49.102;8.856;2023-07-29T03:54:07;17.50;99.90
6333;DHT22;3199;49.102;8.856;2023-07-29T03:56:33;17.50;99.90
6333;DHT22;3199;49.102;8.856;2023-07-29T03:59:05;17.50;99.90
6333;DHT22;3199;49.102;8.856;2023-07-29T04:01:30;17.50;99.90
6333;DHT22;3199;49.102;8.856;2023-07-29T04:03:57;17.50;99.90
6333;DHT22;3199;49.102;8.856;2023-07-29T04:06:22;17.50;99.90
6333;DHT22;3199;49.102;8.856;2023-07-29T04:08:48;17.60;99.90
6333;DHT22;3199;49.102;8.856;2023-07-29T04:11:14;17.60;99.90
6333;DHT22;3199;49.102;8.856;2023-07-29T04:13:40;17.60;99.90
6333;DHT22;3199;49.102;8.856;2023-07-29T04:16:06;17.60;99.90
6333;DHT22;3199;49.102;8.856;2023-07-29T04:18:31;17.60;99.90
6333;DHT22;3199;49.102;8.856;2023-07-29T04:20:57;17.70;99.90
6333;DHT22;3199;49.102;8.856;2023-07-29T04:23:22;17.60;99.90
6333;DHT22;3199;49.102;8.856;2023-07-29T04:25:48;17.70;99.90
6333;DHT22;3199;49.102;8.856;2023-07-29T04:28:15;17.70;99.90
6333;DHT22;3199;49.102;8.856;2023-07-29T04:30:40;17.70;99.90
6333;DHT22;3199;49.102;8.856;2023-07-29T04:33:06;17.70;99.90
6333;DHT22;3199;49.102;8.856;2023-07-29T04:35:31;17.60;99.90
6333;DHT22;3199;49.102;8.856;2023-07-29T04:37:57;17.60;99.90
6333;DHT22;3199;49.102;8.856;2023-07-29T04:40:22;17.60;99.90
6333;DHT22;3199;49.102;8.856;2023-07-29T04:42:48;17.60;99.90
6333;DHT22;3199;49.102;8.856;2023-07-29T04:45:14;17.60;99.90
6333;DHT22;3199;49.102;8.856;2023-07-29T04:47:40;17.60;99.90
6333;DHT22;3199;49.102;8.856;2023-07-29T04:50:06;17.60;99.90
6333;DHT22;3199;49.102;8.856;2023-07-29T04:52:31;17.70;99.90
6333;DHT22;3199;49.102;8.856;2023-07-29T04:54:57;17.70;99.90
6333;DHT22;3199;49.102;8.856;2023-07-29T04:57:22;17.80;99.90
6333;DHT22;3199;49.102;8.856;2023-07-29T04:59:48;17.70;99.90
6333;DHT22;3199;49.102;8.856;2023-07-29T05:02:13;17.80;99.90
6333;DHT22;3199;49.102;8.856;2023-07-29T05:04:39;17.80;99.90
6333;DHT22;3199;49.102;8.856;2023-07-29T05:07:05;17.80;99.90
6333;DHT22;3199;49.102;8.856;2023-07-29T05:09:30;17.80;99.90
6333;DHT22;3199;49.102;8.856;2023-07-29T05:11:56;17.90;99.90
6333;DHT22;3199;49.102;8.856;2023-07-29T05:14:21;17.90;99.90
6333;DHT22;3199;49.102;8.856;2023-07-29T05:16:47;18.00;99.90
6333;DHT22;3199;49.102;8.856;2023-07-29T05:19:13;18.00;99.90
6333;DHT22;3199;49.102;8.856;2023-07-29T05:21:38;18.00;99.90
6333;DHT22;3199;49.102;8.856;2023-07-29T05:24:04;18.10;99.90
6333;DHT22;3199;49.102;8.856;2023-07-29T05:26:30;18.20;99.90
6333;DHT22;3199;49.102;8.856;2023-07-29T05:28:55;18.20;99.90
6333;DHT22;3199;49.102;8.856;2023-07-29T05:31:22;18.30;99.90
6333;DHT22;3199;49.102;8.856;2023-07-29T05:33:47;18.40;99.90
6333;DHT22;3199;49.102;8.856;2023-07-29T05:36:13;18.50;99.90
6333;DHT22;3199;49.102;8.856;2023-07-29T05:38:39;18.60;99.90
6333;DHT22;3199;49.102;8.856;2023-07-29T05:41:04;18.70;99.90
6333;DHT22;3199;49.102;8.856;2023-07-29T05:43:30;18.80;99.90
6333;DHT22;3199;49.102;8.856;2023-07-29T05:45:55;18.80;99.90
6333;DHT22;3199;49.102;8.856;2023-07-29T05:48:21;18.90;99.90
6333;DHT22;3199;49.102;8.856;2023-07-29T05:50:47;19.00;99.90
6333;DHT22;3199;49.102;8.856;2023-07-29T05:53:13;19.10;99.90
6333;DHT22;3199;49.102;8.856;2023-07-29T05:55:39;19.20;99.90
6333;DHT22;3199;49.102;8.856;2023-07-29T05:58:05;19.30;99.90
6333;DHT22;3199;49.102;8.856;2023-07-29T06:00:30;19.50;99.90
6333;DHT22;3199;49.102;8.856;2023-07-29T06:02:56;19.60;99.90
6333;DHT22;3199;49.102;8.856;2023-07-29T06:05:21;19.70;99.90
6333;DHT22;3199;49.102;8.856;2023-07-29T06:07:47;19.80;99.90
6333;DHT22;3199;49.102;8.856;2023-07-29T06:10:14;19.80;99.90
6333;DHT22;3199;49.102;8.856;2023-07-29T06:12:43;19.90;99.90
6333;DHT22;3199;49.102;8.856;2023-07-29T06:15:09;19.90;99.90
6333;DHT22;3199;49.102;8.856;2023-07-29T06:17:35;19.90;99.90
6333;DHT22;3199;49.102;8.856;2023-07-29T06:20:01;20.00;99.90
6333;DHT22;3199;49.102;8.856;2023-07-29T06:22:26;20.10;99.90
6333;DHT22;3199;49.102;8.856;2023-07-29T06:24:52;20.30;99.90
6333;DHT22;3199;49.102;8.856;2023-07-29T06:27:17;20.40;99.90
6333;DHT22;3199;49.102;8.856;2023-07-29T06:29:43;20.50;99.90
6333;DHT22;3199;49.102;8.856;2023-07-29T06:32:08;20.50;99.90
6333;DHT22;3199;49.102;8.856;2023-07-29T06:34:34;20.50;99.90
6333;DHT22;3199;49.102;8.856;2023-07-29T06:36:59;20.40;99.90
6333;DHT22;3199;49.102;8.856;2023-07-29T06:39:25;20.30;99.90
6333;DHT22;3199;49.102;8.856;2023-07-29T06:41:51;20.30;99.90
6333;DHT22;3199;49.102;8.856;2023-07-29T06:44:16;20.20;99.90
6333;DHT22;3199;49.102;8.856;2023-07-29T06:46:42;20.10;99.90
6333;DHT22;3199;49.102;8.856;2023-07-29T06:49:07;20.10;99.90
6333;DHT22;3199;49.102;8.856;2023-07-29T06:51:33;20.10;99.90
6333;DHT22;3199;49.102;8.856;2023-07-29T06:54:01;20.10;99.90
6333;DHT22;3199;49.102;8.856;2023-07-29T06:56:27;20.10;99.90
6333;DHT22;3199;49.102;8.856;2023-07-29T06:58:52;20.10;99.90
6333;DHT22;3199;49.102;8.856;2023-07-29T07:01:18;20.10;99.90
6333;DHT22;3199;49.102;8.856;2023-07-29T07:03:43;20.10;99.90
6333;DHT22;3199;49.102;8.856;2023-07-29T07:06:09;20.10;99.90
6333;DHT22;3199;49.102;8.856;2023-07-29T07:08:34;20.00;99.90
6333;DHT22;3199;49.102;8.856;2023-07-29T07:11:00;19.90;99.90
6333;DHT22;3199;49.102;8.856;2023-07-29T07:13:25;19.90;99.90
6333;DHT22;3199;49.102;8.856;2023-07-29T07:15:54;19.90;99.90
6333;DHT22;3199;49.102;8.856;2023-07-29T07:18:20;20.00;99.90
6333;DHT22;3199;49.102;8.856;2023-07-29T07:20:49;20.10;99.90
6333;DHT22;3199;49.102;8.856;2023-07-29T07:23:15;20.10;99.90
6333;DHT22;3199;49.102;8.856;2023-07-29T07:25:41;20.30;99.90
6333;DHT22;3199;49.102;8.856;2023-07-29T07:28:08;20.50;99.90
6333;DHT22;3199;49.102;8.856;2023-07-29T07:30:33;20.70;99.90
6333;DHT22;3199;49.102;8.856;2023-07-29T07:32:59;20.80;99.90
6333;DHT22;3199;49.102;8.856;2023-07-29T07:35:24;20.90;99.90
6333;DHT22;3199;49.102;8.856;2023-07-29T07:37:50;20.80;99.90
6333;DHT22;3199;49.102;8.856;2023-07-29T07:40:15;20.70;99.90
6333;DHT22;3199;49.102;8.856;2023-07-29T07:42:41;20.60;99.90
6333;DHT22;3199;49.102;8.856;2023-07-29T07:45:06;20.60;99.90
6333;DHT22;3199;49.102;8.856;2023-07-29T07:47:32;20.80;99.90
6333;DHT22;3199;49.102;8.856;2023-07-29T07:49:58;21.00;99.90
6333;DHT22;3199;49.102;8.856;2023-07-29T07:52:23;21.40;99.90
6333;DHT22;3199;49.102;8.856;2023-07-29T07:54:55;22.10;99.90
6333;DHT22;3199;49.102;8.856;2023-07-29T07:57:21;22.50;99.90
6333;DHT22;3199;49.102;8.856;2023-07-29T07:59:47;22.90;99.90
6333;DHT22;3199;49.102;8.856;2023-07-29T08:02:12;23.00;99.90
6333;DHT22;3199;49.102;8.856;2023-07-29T08:04:38;22.90;99.90
6333;DHT22;3199;49.102;8.856;2023-07-29T08:07:04;22.70;99.90
6333;DHT22;3199;49.102;8.856;2023-07-29T08:09:29;22.70;99.90
6333;DHT22;3199;49.102;8.856;2023-07-29T08:11:55;22.60;99.90
6333;DHT22;3199;49.102;8.856;2023-07-29T08:14:21;22.60;99.90
6333;DHT22;3199;49.102;8.856;2023-07-29T08:16:46;22.50;99.90
6333;DHT22;3199;49.102;8.856;2023-07-29T08:19:12;22.60;99.90
6333;DHT22;3199;49.102;8.856;2023-07-29T08:21:37;22.80;99.90
6333;DHT22;3199;49.102;8.856;2023-07-29T08:24:03;23.00;99.90
6333;DHT22;3199;49.102;8.856;2023-07-29T08:26:29;23.00;99.90
6333;DHT22;3199;49.102;8.856;2023-07-29T08:28:54;22.90;99.90
6333;DHT22;3199;49.102;8.856;2023-07-29T08:31:20;22.90;99.90
6333;DHT22;3199;49.102;8.856;2023-07-29T08:33:45;23.00;99.90
6333;DHT22;3199;49.102;8.856;2023-07-29T08:36:11;23.10;99.90
6333;DHT22;3199;49.102;8.856;2023-07-29T08:38:36;23.10;99.90
6333;DHT22;3199;49.102;8.856;2023-07-29T08:41:19;22.80;99.90
6333;DHT22;3199;49.102;8.856;2023-07-29T08:44:06;22.60;99.90
6333;DHT22;3199;49.102;8.856;2023-07-29T08:46:34;22.40;99.90
6333;DHT22;3199;49.102;8.856;2023-07-29T08:49:01;22.40;99.90
6333;DHT22;3199;49.102;8.856;2023-07-29T08:51:27;22.40;99.90
6333;DHT22;3199;49.102;8.856;2023-07-29T08:53:54;22.40;99.90
6333;DHT22;3199;49.102;8.856;2023-07-29T08:56:20;22.50;99.90
6333;DHT22;3199;49.102;8.856;2023-07-29T08:58:46;22.60;99.90
6333;DHT22;3199;49.102;8.856;2023-07-29T09:01:12;22.70;99.90
6333;DHT22;3199;49.102;8.856;2023-07-29T09:03:38;22.70;99.90
6333;DHT22;3199;49.102;8.856;2023-07-29T09:06:05;22.70;99.90
6333;DHT22;3199;49.102;8.856;2023-07-29T09:08:32;22.50;99.90
6333;DHT22;3199;49.102;8.856;2023-07-29T09:10:58;22.40;99.90
6333;DHT22;3199;49.102;8.856;2023-07-29T09:13:25;22.40;99.90
6333;DHT22;3199;49.102;8.856;2023-07-29T09:15:54;22.40;99.90
6333;DHT22;3199;49.102;8.856;2023-07-29T09:18:21;22.50;99.90
6333;DHT22;3199;49.102;8.856;2023-07-29T09:20:48;22.70;99.90
6333;DHT22;3199;49.102;8.856;2023-07-29T09:23:14;22.70;99.90
6333;DHT22;3199;49.102;8.856;2023-07-29T09:25:40;22.70;99.90
6333;DHT22;3199;49.102;8.856;2023-07-29T09:28:24;22.70;99.90
6333;DHT22;3199;49.102;8.856;2023-07-29T09:30:49;22.60;99.90
6333;DHT22;3199;49.102;8.856;2023-07-29T09:33:18;22.50;99.90
6333;DHT22;3199;49.102;8.856;2023-07-29T09:35:44;22.40;99.90
6333;DHT22;3199;49.102;8.856;2023-07-29T09:38:14;22.40;99.90
6333;DHT22;3199;49.102;8.856;2023-07-29T09:40:40;22.30;99.90
6333;DHT22;3199;49.102;8.856;2023-07-29T09:43:09;22.30;99.90
6333;DHT22;3199;49.102;8.856;2023-07-29T09:45:36;22.20;99.90
6333;DHT22;3199;49.102;8.856;2023-07-29T09:48:03;22.10;99.90
6333;DHT22;3199;49.102;8.856;2023-07-29T09:50:30;22.10;99.90
6333;DHT22;3199;49.102;8.856;2023-07-29T09:52:56;22.20;99.90
6333;DHT22;3199;49.102;8.856;2023-07-29T09:55:26;22.30;99.90
6333;DHT22;3199;49.102;8.856;2023-07-29T09:57:59;22.20;99.90
6333;DHT22;3199;49.102;8.856;2023-07-29T10:00:30;22.40;99.90
6333;DHT22;3199;49.102;8.856;2023-07-29T10:02:57;23.00;99.90
6333;DHT22;3199;49.102;8.856;2023-07-29T10:05:22;23.40;99.90
6333;DHT22;3199;49.102;8.856;2023-07-29T10:07:52;23.70;99.90
6333;DHT22;3199;49.102;8.856;2023-07-29T10:10:17;23.80;99.90
6333;DHT22;3199;49.102;8.856;2023-07-29T10:12:43;23.80;99.90
6333;DHT22;3199;49.102;8.856;2023-07-29T10:15:09;24.10;99.90
6333;DHT22;3199;49.102;8.856;2023-07-29T10:17:36;24.40;99.90
6333;DHT22;3199;49.102;8.856;2023-07-29T10:20:07;24.40;99.90
6333;DHT22;3199;49.102;8.856;2023-07-29T10:22:40;24.30;99.90
6333;DHT22;3199;49.102;8.856;2023-07-29T10:25:15;24.20;99.90
6333;DHT22;3199;49.102;8.856;2023-07-29T10:30:15;24.40;99.90
6333;DHT22;3199;49.102;8.856;2023-07-29T10:32:42;24.40;99.90
6333;DHT22;3199;49.102;8.856;2023-07-29T10:35:15;24.50;99.90
6333;DHT22;3199;49.102;8.856;2023-07-29T10:37:41;24.60;99.90
6333;DHT22;3199;49.102;8.856;2023-07-29T10:40:09;24.60;99.90
6333;DHT22;3199;49.102;8.856;2023-07-29T10:42:36;24.70;99.90
6333;DHT22;3199;49.102;8.856;2023-07-29T10:45:19;24.70;99.90
6333;DHT22;3199;49.102;8.856;2023-07-29T10:47:45;24.70;99.90
6333;DHT22;3199;49.102;8.856;2023-07-29T10:50:22;24.60;99.90
6333;DHT22;3199;49.102;8.856;2023-07-29T10:52:51;24.40;99.90
6333;DHT22;3199;49.102;8.856;2023-07-29T10:55:37;24.60;99.90
6333;DHT22;3199;49.102;8.856;2023-07-29T10:58:12;24.60;99.90
6333;DHT22;3199;49.102;8.856;2023-07-29T11:00:41;24.70;99.90
6333;DHT22;3199;49.102;8.856;2023-07-29T11:03:07;24.60;99.90
6333;DHT22;3199;49.102;8.856;2023-07-29T11:05:46;24.60;99.90
6333;DHT22;3199;49.102;8.856;2023-07-29T11:08:29;25.00;99.90
6333;DHT22;3199;49.102;8.856;2023-07-29T11:11:11;25.30;99.90
6333;DHT22;3199;49.102;8.856;2023-07-29T11:13:38;25.50;99.90
6333;DHT22;3199;49.102;8.856;2023-07-29T11:16:04;25.70;99.90
6333;DHT22;3199;49.102;8.856;2023-07-29T11:18:32;25.80;99.90
6333;DHT22;3199;49.102;8.856;2023-07-29T11:20:59;26.00;99.90
6333;DHT22;3199;49.102;8.856;2023-07-29T11:23:30;26.20;99.90
6333;DHT22;3199;49.102;8.856;2023-07-29T11:25:56;26.50;99.90
6333;DHT22;3199;49.102;8.856;2023-07-29T11:28:22;26.40;99.90
6333;DHT22;3199;49.102;8.856;2023-07-29T11:30:49;26.40;99.90
6333;DHT22;3199;49.102;8.856;2023-07-29T11:33:18;26.30;99.90
6333;DHT22;3199;49.102;8.856;2023-07-29T11:35:43;26.50;99.90
6333;DHT22;3199;49.102;8.856;2023-07-29T11:38:15;26.50;99.90
6333;DHT22;3199;49.102;8.856;2023-07-29T11:40:40;26.40;99.90
6333;DHT22;3199;49.102;8.856;2023-07-29T11:43:06;26.50;99.90
6333;DHT22;3199;49.102;8.856;2023-07-29T11:45:31;26.70;99.90
6333;DHT22;3199;49.102;8.856;2023-07-29T11:47:58;26.80;99.50
6333;DHT22;3199;49.102;8.856;2023-07-29T11:50:24;26.80;99.70
6333;DHT22;3199;49.102;8.856;2023-07-29T11:52:49;26.80;99.80
6333;DHT22;3199;49.102;8.856;2023-07-29T11:55:15;26.90;99.90
6333;DHT22;3199;49.102;8.856;2023-07-29T11:57:42;27.10;99.90
6333;DHT22;3199;49.102;8.856;2023-07-29T12:00:09;27.20;99.10
6333;DHT22;3199;49.102;8.856;2023-07-29T12:02:39;27.40;99.00
6333;DHT22;3199;49.102;8.856;2023-07-29T12:05:06;27.30;98.20
6333;DHT22;3199;49.102;8.856;2023-07-29T12:07:33;27.20;98.10
6333;DHT22;3199;49.102;8.856;2023-07-29T12:09:59;27.40;98.20
6333;DHT22;3199;49.102;8.856;2023-07-29T12:12:24;27.40;97.30
6333;DHT22;3199;49.102;8.856;2023-07-29T12:14:50;27.30;97.30
6333;DHT22;3199;49.102;8.856;2023-07-29T12:17:16;27.20;96.50
6333;DHT22;3199;49.102;8.856;2023-07-29T12:19:42;27.20;97.40
6333;DHT22;3199;49.102;8.856;2023-07-29T12:22:09;27.40;97.50
6333;DHT22;3199;49.102;8.856;2023-07-29T12:24:37;27.30;97.20
6333;DHT22;3199;49.102;8.856;2023-07-29T12:27:04;27.00;97.30
6333;DHT22;3199;49.102;8.856;2023-07-29T12:29:29;26.70;97.80
6333;DHT22;3199;49.102;8.856;2023-07-29T12:31:59;26.40;97.60
6333;DHT22;3199;49.102;8.856;2023-07-29T12:34:27;26.20;98.40
6333;DHT22;3199;49.102;8.856;2023-07-29T12:36:54;26.40;98.60
6333;DHT22;3199;49.102;8.856;2023-07-29T12:39:44;26.80;98.60
6333;DHT22;3199;49.102;8.856;2023-07-29T12:42:09;27.00;97.80
6333;DHT22;3199;49.102;8.856;2023-07-29T12:44:36;27.20;97.90
6333;DHT22;3199;49.102;8.856;2023-07-29T12:47:04;27.10;96.70
6333;DHT22;3199;49.102;8.856;2023-07-29T12:49:30;27.00;97.40
6333;DHT22;3199;49.102;8.856;2023-07-29T12:51:57;27.10;97.70
6333;DHT22;3199;49.102;8.856;2023-07-29T12:54:23;27.30;96.60
6333;DHT22;3199;49.102;8.856;2023-07-29T12:56:48;27.40;95.30
6333;DHT22;3199;49.102;8.856;2023-07-29T12:59:14;27.30;95.30
6333;DHT22;3199;49.102;8.856;2023-07-29T13:01:40;26.90;95.50
6333;DHT22;3199;49.102;8.856;2023-07-29T13:04:06;26.70;96.30
6333;DHT22;3199;49.102;8.856;2023-07-29T13:06:31;26.70;96.60
6333;DHT22;3199;49.102;8.856;2023-07-29T13:08:57;26.90;97.30
6333;DHT22;3199;49.102;8.856;2023-07-29T13:11:22;27.10;97.50
6333;DHT22;3199;49.102;8.856;2023-07-29T13:13:49;27.30;96.80
6333;DHT22;3199;49.102;8.856;2023-07-29T13:16:14;27.20;95.30
6333;DHT22;3199;49.102;8.856;2023-07-29T13:18:40;27.20;95.70
6333;DHT22;3199;49.102;8.856;2023-07-29T13:21:06;27.40;95.60
6333;DHT22;3199;49.102;8.856;2023-07-29T13:23:32;27.50;94.20
6333;DHT22;3199;49.102;8.856;2023-07-29T13:25:58;27.40;94.00
6333;DHT22;3199;49.102;8.856;2023-07-29T13:28:23;27.40;93.50
6333;DHT22;3199;49.102;8.856;2023-07-29T13:30:49;27.40;94.10
6333;DHT22;3199;49.102;8.856;2023-07-29T13:33:15;27.50;93.80
6333;DHT22;3199;49.102;8.856;2023-07-29T13:35:40;27.40;93.00
6333;DHT22;3199;49.102;8.856;2023-07-29T13:38:06;27.40;93.60
6333;DHT22;3199;49.102;8.856;2023-07-29T13:40:31;27.50;93.30
6333;DHT22;3199;49.102;8.856;2023-07-29T13:42:57;27.40;93.10
6333;DHT22;3199;49.102;8.856;2023-07-29T13:45:23;27.50;93.50
6333;DHT22;3199;49.102;8.856;2023-07-29T13:47:49;27.70;93.30
6333;DHT22;3199;49.102;8.856;2023-07-29T13:50:15;27.80;92.50
6333;DHT22;3199;49.102;8.856;2023-07-29T13:52:41;27.60;92.30
6333;DHT22;3199;49.102;8.856;2023-07-29T13:55:07;27.30;92.40
6333;DHT22;3199;49.102;8.856;2023-07-29T13:57:32;27.10;93.10
6333;DHT22;3199;49.102;8.856;2023-07-29T13:59:58;26.90;92.70
6333;DHT22;3199;49.102;8.856;2023-07-29T14:02:24;27.00;93.60
6333;DHT22;3199;49.102;8.856;2023-07-29T14:04:51;26.90;93.60
6333;DHT22;3199;49.102;8.856;2023-07-29T14:07:17;27.00;93.90
6333;DHT22;3199;49.102;8.856;2023-07-29T14:09:43;27.00;93.80
6333;DHT22;3199;49.102;8.856;2023-07-29T14:12:08;27.20;93.50
6333;DHT22;3199;49.102;8.856;2023-07-29T14:14:38;27.30;93.40
6333;DHT22;3199;49.102;8.856;2023-07-29T14:17:04;27.30;93.50
6333;DHT22;3199;49.102;8.856;2023-07-29T14:19:30;27.40;93.40
6333;DHT22;3199;49.102;8.856;2023-07-29T14:21:56;27.50;92.60
6333;DHT22;3199;49.102;8.856;2023-07-29T14:24:22;27.50;93.00
6333;DHT22;3199;49.102;8.856;2023-07-29T14:26:48;27.40;92.80
6333;DHT22;3199;49.102;8.856;2023-07-29T14:29:13;27.50;92.70
6333;DHT22;3199;49.102;8.856;2023-07-29T14:31:39;27.50;91.50
6333;DHT22;3199;49.102;8.856;2023-07-29T14:34:04;27.40;91.80
6333;DHT22;3199;49.102;8.856;2023-07-29T14:36:30;27.20;92.30
6333;DHT22;3199;49.102;8.856;2023-07-29T14:38:55;27.00;91.50
6333;DHT22;3199;49.102;8.856;2023-07-29T14:41:21;26.90;92.40
6333;DHT22;3199;49.102;8.856;2023-07-29T14:43:46;26.90;92.50
6333;DHT22;3199;49.102;8.856;2023-07-29T14:46:12;26.90;92.80
6333;DHT22;3199;49.102;8.856;2023-07-29T14:48:37;27.20;92.20
6333;DHT22;3199;49.102;8.856;2023-07-29T14:51:03;27.10;92.00
6333;DHT22;3199;49.102;8.856;2023-07-29T14:53:28;27.10;92.00
6333;DHT22;3199;49.102;8.856;2023-07-29T14:55:54;26.90;91.80
6333;DHT22;3199;49.102;8.856;2023-07-29T14:58:20;26.90;92.20
6333;DHT22;3199;49.102;8.856;2023-07-29T15:00:45;26.80;91.50
6333;DHT22;3199;49.102;8.856;2023-07-29T15:03:11;26.70;91.40
6333;DHT22;3199;49.102;8.856;2023-07-29T15:05:36;26.50;91.40
6333;DHT22;3199;49.102;8.856;2023-07-29T15:08:02;26.50;92.00
6333;DHT22;3199;49.102;8.856;2023-07-29T15:10:27;26.40;91.90
6333;DHT22;3199;49.102;8.856;2023-07-29T15:12:53;26.30;92.00
6333;DHT22;3199;49.102;8.856;2023-07-29T15:15:18;26.20;92.60
6333;DHT22;3199;49.102;8.856;2023-07-29T15:17:44;26.40;92.80
6333;DHT22;3199;49.102;8.856;2023-07-29T15:20:10;26.50;92.80
6333;DHT22;3199;49.102;8.856;2023-07-29T15:22:36;26.70;92.80
6333;DHT22;3199;49.102;8.856;2023-07-29T15:25:01;26.70;91.90
6333;DHT22;3199;49.102;8.856;2023-07-29T15:27:28;26.60;91.40
6333;DHT22;3199;49.102;8.856;2023-07-29T15:29:54;26.50;92.00
6333;DHT22;3199;49.102;8.856;2023-07-29T15:32:20;26.40;91.70
6333;DHT22;3199;49.102;8.856;2023-07-29T15:34:46;26.40;92.20
6333;DHT22;3199;49.102;8.856;2023-07-29T15:37:11;26.40;92.30
6333;DHT22;3199;49.102;8.856;2023-07-29T15:39:37;26.40;92.50
6333;DHT22;3199;49.102;8.856;2023-07-29T15:42:04;26.30;92.30
6333;DHT22;3199;49.102;8.856;2023-07-29T15:44:29;26.20;92.40
6333;DHT22;3199;49.102;8.856;2023-07-29T15:46:55;26.10;92.70
6333;DHT22;3199;49.102;8.856;2023-07-29T15:49:23;26.00;93.00
6333;DHT22;3199;49.102;8.856;2023-07-29T15:51:49;25.90;93.10
6333;DHT22;3199;49.102;8.856;2023-07-29T15:54:15;25.80;93.30
6333;DHT22;3199;49.102;8.856;2023-07-29T15:56:40;25.80;93.50
6333;DHT22;3199;49.102;8.856;2023-07-29T15:59:07;25.70;93.40
6333;DHT22;3199;49.102;8.856;2023-07-29T16:01:33;25.70;93.40
6333;DHT22;3199;49.102;8.856;2023-07-29T16:03:58;25.70;93.60